createdAt,value
2018-11-11T00:02:06.140Z,7.51
2018-11-11T00:04:33.410Z,7.45
2018-11-11T00:07:00.847Z,7.41
2018-11-11T00:09:28.077Z,7.39
2018-11-11T00:11:55.433Z,7.41
2018-11-11T00:14:22.699Z,7.39
2018-11-11T00:16:50.072Z,7.41
2018-11-11T00:19:23.761Z,7.48
2018-11-11T00:21:51.868Z,7.45
2018-11-11T00:24:19.101Z,7.41
2018-11-11T00:26:46.385Z,7.37
2018-11-11T00:29:13.685Z,7.31
2018-11-11T00:31:40.930Z,7.34
2018-11-11T00:34:08.388Z,7.37
2018-11-11T00:36:35.607Z,7.41
2018-11-11T00:39:03.867Z,7.53
2018-11-11T00:41:31.373Z,7.48
2018-11-11T00:43:58.639Z,7.41
2018-11-11T00:46:26.008Z,7.38
2018-11-11T00:48:53.244Z,7.28
2018-11-11T00:51:20.614Z,7.27
2018-11-11T00:53:47.863Z,7.14
2018-11-11T00:56:15.143Z,7.09
2018-11-11T00:58:42.446Z,7.16
2018-11-11T01:01:09.705Z,7.12
2018-11-11T01:03:36.952Z,7.16
2018-11-11T01:06:04.295Z,7.07
2018-11-11T01:08:31.683Z,7.06
2018-11-11T01:10:58.956Z,7.09
2018-11-11T01:13:26.228Z,7.04
2018-11-11T01:15:53.560Z,6.97
2018-11-11T01:18:20.799Z,7.08
2018-11-11T01:20:48.047Z,7.08
2018-11-11T01:23:15.308Z,7.11
2018-11-11T01:25:42.520Z,7.07
2018-11-11T01:28:09.849Z,7.02
2018-11-11T01:30:37.124Z,6.89
2018-11-11T01:33:04.377Z,6.78
2018-11-11T01:35:31.605Z,6.84
2018-11-11T01:37:58.828Z,6.79
2018-11-11T01:40:26.059Z,6.87
2018-11-11T01:42:53.380Z,7.13
2018-11-11T01:45:20.628Z,7.04
2018-11-11T01:47:49.215Z,7.02
2018-11-11T01:50:16.584Z,7.25
2018-11-11T01:52:43.799Z,7.21
2018-11-11T01:55:11.713Z,7.20
2018-11-11T01:57:39.212Z,7.16
2018-11-11T02:00:08.914Z,7.26
2018-11-11T02:02:36.150Z,7.19
2018-11-11T02:05:04.286Z,7.23
2018-11-11T02:07:31.486Z,7.14
2018-11-11T02:09:58.783Z,7.20
2018-11-11T02:12:25.980Z,7.15
2018-11-11T02:14:53.342Z,7.11
2018-11-11T02:17:20.596Z,7.05
2018-11-11T02:19:48.352Z,7.06
2018-11-11T02:22:15.528Z,7.10
2018-11-11T02:24:42.781Z,7.09
2018-11-11T02:27:10.055Z,7.19
2018-11-11T02:29:37.219Z,7.16
2018-11-11T02:32:04.664Z,7.06
2018-11-11T02:34:31.808Z,7.09
2018-11-11T02:36:59.096Z,6.92
2018-11-11T02:39:26.295Z,6.99
2018-11-11T02:41:53.494Z,7.15
2018-11-11T02:44:20.743Z,7.17
2018-11-11T02:46:47.956Z,7.18
2018-11-11T02:49:15.230Z,7.13
2018-11-11T02:51:42.432Z,7.15
2018-11-11T02:54:09.662Z,7.16
2018-11-11T02:56:36.917Z,7.15
2018-11-11T02:59:04.178Z,7.20
2018-11-11T03:01:31.408Z,7.14
2018-11-11T03:03:58.685Z,7.13
2018-11-11T03:06:25.926Z,7.02
2018-11-11T03:08:53.170Z,6.98
2018-11-11T03:11:20.400Z,6.86
2018-11-11T03:13:47.583Z,6.86
2018-11-11T03:16:14.819Z,6.83
2018-11-11T03:18:42.048Z,6.82
2018-11-11T03:21:09.247Z,6.81
2018-11-11T03:23:36.436Z,6.77
2018-11-11T03:26:10.363Z,6.75
2018-11-11T03:28:37.627Z,6.81
2018-11-11T03:31:04.826Z,6.70
2018-11-11T03:33:32.060Z,6.76
2018-11-11T03:35:59.286Z,6.74
2018-11-11T03:38:26.472Z,6.71
2018-11-11T03:40:53.769Z,6.73
2018-11-11T03:43:21.000Z,6.90
2018-11-11T03:45:48.221Z,6.95
2018-11-11T03:48:15.404Z,6.97
2018-11-11T03:50:42.629Z,7.13
2018-11-11T03:53:09.853Z,7.17
2018-11-11T03:55:37.090Z,7.26
2018-11-11T03:58:04.461Z,7.30
2018-11-11T04:00:31.682Z,7.19
2018-11-11T04:02:58.849Z,7.26
2018-11-11T04:05:26.073Z,7.15
2018-11-11T04:07:53.269Z,7.16
2018-11-11T04:10:20.526Z,7.22
2018-11-11T04:12:48.312Z,7.17
2018-11-11T04:15:16.770Z,7.18
2018-11-11T04:17:43.985Z,7.13
2018-11-11T04:20:12.727Z,7.02
2018-11-11T04:22:39.914Z,7.00
2018-11-11T04:25:07.368Z,6.98
2018-11-11T04:27:34.594Z,7.08
2018-11-11T04:30:02.453Z,7.15
2018-11-11T04:32:29.632Z,6.98
2018-11-11T04:34:57.323Z,7.00
2018-11-11T04:37:24.550Z,7.01
2018-11-11T04:39:51.741Z,6.90
2018-11-11T04:42:18.998Z,6.81
2018-11-11T04:44:46.255Z,6.99
2018-11-11T04:47:13.483Z,7.09
2018-11-11T04:49:40.667Z,7.13
2018-11-11T04:52:07.952Z,7.14
2018-11-11T04:54:35.158Z,7.04
2018-11-11T04:57:02.454Z,6.96
2018-11-11T04:59:29.656Z,7.05
2018-11-11T05:01:56.889Z,6.95
2018-11-11T05:04:24.105Z,6.91
2018-11-11T05:06:51.276Z,6.92
2018-11-11T05:09:18.573Z,6.94
2018-11-11T05:11:45.885Z,6.98
2018-11-11T05:14:13.668Z,7.01
2018-11-11T05:16:40.895Z,6.98
2018-11-11T05:19:09.289Z,7.02
2018-11-11T05:21:36.612Z,6.97
2018-11-11T05:24:04.430Z,7.03
2018-11-11T05:26:31.681Z,6.97
2018-11-11T05:28:58.874Z,6.99
2018-11-11T05:31:26.068Z,6.99
2018-11-11T05:33:53.253Z,6.90
2018-11-11T05:36:20.435Z,6.89
2018-11-11T05:38:47.657Z,6.94
2018-11-11T05:41:14.780Z,6.99
2018-11-11T05:43:42.081Z,6.99
2018-11-11T05:46:09.289Z,7.09
2018-11-11T05:48:36.472Z,6.99
2018-11-11T05:51:03.892Z,6.98
2018-11-11T05:53:31.084Z,7.01
2018-11-11T05:55:58.299Z,7.06
2018-11-11T05:58:25.488Z,6.99
2018-11-11T06:00:52.732Z,7.01
2018-11-11T06:03:20.012Z,7.10
2018-11-11T06:05:47.224Z,7.04
2018-11-11T06:08:14.490Z,7.05
2018-11-11T06:10:41.688Z,6.99
2018-11-11T06:13:08.870Z,7.04
2018-11-11T06:15:36.037Z,7.06
2018-11-11T06:18:03.276Z,7.06
2018-11-11T06:20:30.427Z,7.11
2018-11-11T06:22:57.641Z,7.11
2018-11-11T06:25:24.828Z,7.08
2018-11-11T06:27:52.039Z,7.18
2018-11-11T06:30:19.288Z,7.19
2018-11-11T06:32:46.500Z,7.16
2018-11-11T06:35:13.734Z,7.17
2018-11-11T06:37:41.023Z,7.09
2018-11-11T06:40:09.569Z,7.00
2018-11-11T06:42:37.031Z,6.97
2018-11-11T06:45:06.365Z,6.96
2018-11-11T06:47:33.556Z,7.09
2018-11-11T06:50:00.781Z,7.08
2018-11-11T06:52:27.946Z,7.07
2018-11-11T06:54:55.153Z,7.19
2018-11-11T06:57:22.376Z,7.26
2018-11-11T06:59:49.582Z,7.25
2018-11-11T07:02:16.821Z,7.38
2018-11-11T07:04:43.994Z,7.37
2018-11-11T07:07:11.181Z,7.41
2018-11-11T07:09:38.408Z,7.35
2018-11-11T07:12:05.660Z,7.33
2018-11-11T07:14:32.847Z,7.33
2018-11-11T07:17:00.072Z,7.37
2018-11-11T07:19:27.252Z,7.39
2018-11-11T07:21:54.467Z,7.44
2018-11-11T07:24:21.728Z,7.48
2018-11-11T07:26:48.923Z,7.48
2018-11-11T07:29:16.105Z,7.53
2018-11-11T07:31:43.296Z,7.61
2018-11-11T07:34:10.457Z,7.68
2018-11-11T07:36:37.661Z,7.73
2018-11-11T07:39:08.609Z,7.67
2018-11-11T07:41:35.861Z,7.74
2018-11-11T07:44:03.115Z,7.75
2018-11-11T07:46:30.360Z,7.70
2018-11-11T07:48:57.520Z,7.82
2018-11-11T07:51:24.807Z,7.85
2018-11-11T07:53:52.073Z,7.87
2018-11-11T07:56:19.303Z,7.86
2018-11-11T07:58:46.564Z,7.89
2018-11-11T08:01:13.799Z,8.00
2018-11-11T08:03:41.030Z,7.92
2018-11-11T08:06:08.212Z,7.96
2018-11-11T08:08:35.489Z,7.99
2018-11-11T08:11:14.208Z,8.10
2018-11-11T08:13:41.440Z,8.00
2018-11-11T08:16:08.695Z,8.07
2018-11-11T08:18:35.956Z,8.25
2018-11-11T08:21:03.179Z,8.23
2018-11-11T08:23:30.440Z,8.26
2018-11-11T08:25:57.652Z,8.21
2018-11-11T08:28:24.848Z,8.25
2018-11-11T08:30:52.045Z,8.20
2018-11-11T08:33:19.193Z,8.27
2018-11-11T08:35:46.362Z,8.24
2018-11-11T08:38:13.552Z,8.19
2018-11-11T08:40:40.826Z,8.25
2018-11-11T08:43:07.936Z,8.28
2018-11-11T08:45:35.097Z,8.47
2018-11-11T08:48:02.440Z,8.55
2018-11-11T08:50:29.584Z,8.57
2018-11-11T08:52:56.712Z,8.49
2018-11-11T08:55:23.932Z,8.44
2018-11-11T08:57:51.216Z,8.53
2018-11-11T09:00:18.460Z,8.55
2018-11-11T09:02:45.653Z,8.52
2018-11-11T09:05:12.860Z,8.57
2018-11-11T09:07:40.074Z,8.58
2018-11-11T09:10:08.585Z,8.59
2018-11-11T09:12:35.744Z,8.57
2018-11-11T09:15:03.672Z,8.53
2018-11-11T09:17:31.210Z,8.48
2018-11-11T09:19:58.403Z,8.51
2018-11-11T09:22:25.632Z,8.52
2018-11-11T09:24:52.844Z,8.44
2018-11-11T09:27:20.063Z,8.53
2018-11-11T09:29:47.356Z,8.53
2018-11-11T09:32:14.576Z,8.53
2018-11-11T09:34:41.810Z,8.56
2018-11-11T09:37:09.244Z,8.63
2018-11-11T09:39:36.523Z,8.67
2018-11-11T09:42:04.614Z,8.73
2018-11-11T09:44:31.873Z,8.72
2018-11-11T09:46:59.157Z,8.66
2018-11-11T09:49:26.412Z,8.80
2018-11-11T09:51:54.023Z,8.74
2018-11-11T09:54:21.288Z,8.89
2018-11-11T09:56:48.447Z,8.89
2018-11-11T09:59:15.749Z,8.97
2018-11-11T10:01:43.013Z,8.84
2018-11-11T10:04:15.900Z,8.89
2018-11-11T10:07:52.114Z,8.87
2018-11-11T10:10:24.416Z,8.98
2018-11-11T10:13:01.928Z,9.03
2018-11-11T10:15:37.135Z,9.03
2018-11-11T10:18:12.607Z,9.21
2018-11-11T10:20:47.669Z,9.27
2018-11-11T10:23:18.701Z,9.33
2018-11-11T10:25:54.662Z,9.26
2018-11-11T10:28:30.272Z,9.25
2018-11-11T10:31:35.371Z,9.23
2018-11-11T10:34:09.952Z,9.44
2018-11-11T10:36:46.046Z,9.51
2018-11-11T10:39:17.875Z,9.55
2018-11-11T10:41:54.261Z,9.54
2018-11-11T10:44:40.816Z,9.37
2018-11-11T10:47:12.645Z,9.46
2018-11-11T10:49:43.052Z,9.54
2018-11-11T10:52:10.308Z,9.64
2018-11-11T10:54:37.980Z,9.68
2018-11-11T10:57:05.295Z,9.81
2018-11-11T10:59:32.524Z,9.85
2018-11-11T11:02:05.424Z,9.87
2018-11-11T11:04:32.654Z,9.79
2018-11-11T11:07:05.804Z,9.65
2018-11-11T11:09:33.021Z,9.69
2018-11-11T11:12:00.258Z,9.75
2018-11-11T11:14:27.457Z,9.78
2018-11-11T11:16:54.689Z,9.78
2018-11-11T11:19:22.335Z,9.76
2018-11-11T11:21:49.513Z,9.75
2018-11-11T11:24:16.749Z,9.72
2018-11-11T11:26:43.900Z,9.68
2018-11-11T11:29:11.133Z,9.67
2018-11-11T11:31:38.441Z,9.51
2018-11-11T11:34:05.784Z,9.64
2018-11-11T11:36:33.050Z,9.72
2018-11-11T11:39:00.277Z,9.77
2018-11-11T11:41:27.641Z,9.84
2018-11-11T11:43:54.769Z,9.81
2018-11-11T11:46:22.054Z,9.87
2018-11-11T11:48:49.327Z,9.88
2018-11-11T11:51:16.589Z,9.76
2018-11-11T11:53:43.853Z,9.81
2018-11-11T11:56:11.076Z,9.81
2018-11-11T11:58:38.287Z,9.81
2018-11-11T12:01:05.518Z,9.96
2018-11-11T12:03:32.727Z,9.98
2018-11-11T12:05:59.892Z,9.94
2018-11-11T12:08:27.073Z,9.92
2018-11-11T12:10:54.338Z,9.97
2018-11-11T12:13:21.479Z,9.93
2018-11-11T12:15:48.735Z,10.00
2018-11-11T12:18:15.985Z,10.04
2018-11-11T12:20:43.188Z,10.06
2018-11-11T12:23:10.742Z,10.04
2018-11-11T12:25:38.672Z,10.11
2018-11-11T12:28:05.964Z,10.05
2018-11-11T12:30:33.314Z,10.19
2018-11-11T12:33:00.603Z,10.19
2018-11-11T12:35:27.809Z,10.14
2018-11-11T12:37:55.023Z,10.14
2018-11-11T12:40:22.344Z,10.02
2018-11-11T12:42:49.478Z,10.04
2018-11-11T12:45:16.699Z,10.10
2018-11-11T12:47:43.948Z,10.18
2018-11-11T12:50:12.170Z,10.19
2018-11-11T12:52:39.441Z,10.17
2018-11-11T12:55:07.053Z,10.28
2018-11-11T12:57:34.332Z,10.29
2018-11-11T13:00:01.566Z,10.32
2018-11-11T13:02:28.815Z,10.40
2018-11-11T13:04:56.436Z,10.52
2018-11-11T13:07:23.590Z,10.50
2018-11-11T13:09:50.888Z,10.42
2018-11-11T13:12:18.352Z,10.43
2018-11-11T13:14:45.466Z,10.34
2018-11-11T13:17:13.072Z,10.39
2018-11-11T13:19:40.404Z,10.54
2018-11-11T13:22:07.771Z,10.56
2018-11-11T13:24:35.008Z,10.53
2018-11-11T13:27:02.252Z,11.36
2018-11-11T13:29:29.483Z,12.24
2018-11-11T13:31:56.750Z,11.64
2018-11-11T13:34:23.913Z,11.11
2018-11-11T13:36:51.174Z,10.89
2018-11-11T13:39:18.426Z,10.67
2018-11-11T13:41:45.830Z,10.80
2018-11-11T13:44:13.124Z,10.80
2018-11-11T13:46:40.569Z,10.63
2018-11-11T13:49:07.684Z,10.49
2018-11-11T13:51:41.824Z,10.48
2018-11-11T13:54:09.210Z,10.42
2018-11-11T13:56:36.641Z,10.47
2018-11-11T13:59:03.946Z,10.48
2018-11-11T14:01:31.211Z,10.49
2018-11-11T14:03:58.404Z,10.48
2018-11-11T14:06:25.667Z,10.44
2018-11-11T14:08:52.897Z,10.41
2018-11-11T14:11:20.124Z,10.38
2018-11-11T14:13:47.425Z,10.36
2018-11-11T14:16:14.636Z,10.38
2018-11-11T14:18:42.049Z,10.27
2018-11-11T14:21:09.818Z,10.17
2018-11-11T14:23:37.089Z,10.14
2018-11-11T14:26:04.467Z,10.06
2018-11-11T14:28:31.644Z,10.00
2018-11-11T14:30:58.813Z,9.98
2018-11-11T14:33:26.092Z,9.98
2018-11-11T14:35:53.414Z,9.87
2018-11-11T14:38:20.647Z,9.86
2018-11-11T14:40:47.759Z,9.70
2018-11-11T14:43:14.991Z,9.87
2018-11-11T14:45:42.173Z,9.73
2018-11-11T14:48:09.397Z,9.84
2018-11-11T14:50:36.618Z,9.86
2018-11-11T14:53:04.256Z,9.95
2018-11-11T14:55:31.455Z,9.99
2018-11-11T14:57:59.550Z,9.99
2018-11-11T15:00:29.036Z,9.98
2018-11-11T15:03:00.015Z,9.89
2018-11-11T15:05:27.276Z,9.84
2018-11-11T15:07:54.506Z,9.85
2018-11-11T15:10:21.755Z,9.84
2018-11-11T15:12:49.140Z,9.84
2018-11-11T15:15:17.788Z,9.80
2018-11-11T15:17:45.663Z,9.72
2018-11-11T15:20:14.198Z,9.73
2018-11-11T15:22:41.678Z,9.69
2018-11-11T15:25:11.305Z,9.69
2018-11-11T15:27:38.972Z,9.70
2018-11-11T15:30:08.886Z,9.67
2018-11-11T15:32:36.116Z,9.66
2018-11-11T15:35:04.054Z,9.64
2018-11-11T15:37:31.312Z,9.61
2018-11-11T15:39:58.520Z,9.67
2018-11-11T15:42:25.882Z,9.58
2018-11-11T15:44:53.087Z,9.49
2018-11-11T15:47:20.332Z,9.47
2018-11-11T15:49:48.263Z,9.53
2018-11-11T15:52:16.578Z,9.61
2018-11-11T15:54:43.776Z,9.57
2018-11-11T15:57:11.189Z,9.46
2018-11-11T15:59:38.450Z,9.38
2018-11-11T16:02:06.297Z,9.32
2018-11-11T16:04:50.830Z,9.25
2018-11-11T16:07:22.978Z,9.43
2018-11-11T16:09:54.521Z,9.45
2018-11-11T16:12:25.909Z,9.55
2018-11-11T16:14:57.103Z,9.52
2018-11-11T16:17:28.894Z,9.48
2018-11-11T16:20:00.709Z,9.55
2018-11-11T16:22:32.180Z,9.42
2018-11-11T16:25:04.780Z,9.38
2018-11-11T16:27:33.246Z,9.19
2018-11-11T16:30:06.633Z,9.03
2018-11-11T16:32:36.275Z,9.02
2018-11-11T16:47:57.030Z,8.97
2018-11-11T16:50:28.196Z,9.09
2018-11-11T16:52:57.337Z,8.94
2018-11-11T16:55:26.206Z,8.90
2018-11-11T16:57:58.193Z,8.89
2018-11-11T17:00:27.159Z,8.84
2018-11-11T17:02:56.530Z,8.73
2018-11-11T17:05:31.012Z,8.82
2018-11-11T17:07:58.677Z,8.79
2018-11-11T17:10:27.529Z,8.91
2018-11-11T17:12:56.378Z,8.84
2018-11-11T17:15:29.353Z,8.78
2018-11-11T17:17:57.517Z,8.70
2018-11-11T17:20:29.393Z,8.70
2018-11-11T17:23:02.789Z,8.60
2018-11-11T17:25:32.610Z,8.56
2018-11-11T17:28:00.344Z,8.63
2018-11-11T17:30:29.415Z,8.59
2018-11-11T17:33:03.314Z,8.56
2018-11-11T17:35:31.172Z,8.36
2018-11-11T17:38:00.502Z,8.34
2018-11-11T17:40:30.055Z,8.30
2018-11-11T17:42:58.337Z,8.26
2018-11-11T17:45:26.163Z,8.19
2018-11-11T17:47:54.524Z,8.30
2018-11-11T17:50:30.110Z,8.30
2018-11-11T17:53:02.223Z,8.17
2018-11-11T17:55:34.650Z,7.93
2018-11-11T17:58:04.429Z,7.93
2018-11-11T18:00:32.386Z,7.88
2018-11-11T18:03:02.788Z,7.92
2018-11-11T18:05:32.491Z,7.96
2018-11-11T18:08:00.451Z,8.06
2018-11-11T18:10:32.682Z,8.09
2018-11-11T18:13:00.079Z,8.11
2018-11-11T18:15:28.953Z,8.14
2018-11-11T18:17:56.490Z,8.16
2018-11-11T18:20:28.185Z,8.35
2018-11-11T18:22:56.734Z,8.28
2018-11-11T18:25:24.218Z,8.18
2018-11-11T18:27:51.805Z,8.15
2018-11-11T18:30:26.475Z,8.16
2018-11-11T18:32:54.866Z,8.15
2018-11-11T18:35:22.617Z,8.16
2018-11-11T18:37:50.293Z,8.14
2018-11-11T18:40:19.425Z,8.10
2018-11-11T18:42:46.962Z,8.07
2018-11-11T18:45:16.548Z,7.97
2018-11-11T18:47:44.757Z,7.96
2018-11-11T18:50:18.143Z,7.97
2018-11-11T18:52:45.856Z,7.94
2018-11-11T18:55:14.346Z,7.96
2018-11-11T18:57:42.256Z,7.88
2018-11-11T19:00:12.314Z,7.88
2018-11-11T19:02:40.420Z,7.69
2018-11-11T19:05:09.805Z,7.63
2018-11-11T19:07:37.767Z,7.63
2018-11-11T19:10:06.788Z,7.66
2018-11-11T19:12:36.177Z,7.63
2018-11-11T19:15:04.538Z,7.71
2018-11-11T19:17:33.673Z,7.71
2018-11-11T19:20:01.292Z,7.63
2018-11-11T19:22:29.113Z,7.63
2018-11-11T19:24:56.655Z,7.51
2018-11-11T19:27:24.106Z,7.41
2018-11-11T19:29:51.956Z,7.39
2018-11-11T19:32:20.435Z,7.40
2018-11-11T19:34:48.664Z,7.44
2018-11-11T19:37:16.822Z,7.43
2018-11-11T19:39:44.254Z,7.47
2018-11-11T19:42:11.763Z,7.45
2018-11-11T19:44:39.247Z,7.38
2018-11-11T19:47:06.993Z,7.30
2018-11-11T19:49:34.728Z,7.30
2018-11-11T19:52:02.235Z,6.97
2018-11-11T19:54:29.955Z,6.99
2018-11-11T19:56:57.459Z,7.02
2018-11-11T19:59:24.997Z,6.96
2018-11-11T20:01:52.779Z,6.85
2018-11-11T20:04:20.490Z,6.90
2018-11-11T20:06:48.069Z,6.85
2018-11-11T20:09:15.810Z,6.84
2018-11-11T20:11:57.435Z,6.89
2018-11-11T20:14:27.284Z,6.90
2018-11-11T20:16:55.457Z,6.86
2018-11-11T20:19:23.240Z,6.85
2018-11-11T20:21:52.256Z,6.79
2018-11-11T20:24:21.135Z,6.77
2018-11-11T20:26:49.790Z,6.67
2018-11-11T20:29:20.699Z,6.78
2018-11-11T20:31:48.486Z,6.74
2018-11-11T20:34:16.212Z,6.72
2018-11-11T20:36:44.964Z,6.71
2018-11-11T20:39:13.243Z,6.63
2018-11-11T20:41:41.141Z,6.63
2018-11-11T20:44:10.798Z,6.65
2018-11-11T20:46:40.595Z,6.69
2018-11-11T20:49:08.528Z,6.68
2018-11-11T20:51:36.326Z,6.63
2018-11-11T20:54:04.597Z,6.51
2018-11-11T20:56:32.345Z,6.32
2018-11-11T20:59:00.170Z,6.24
2018-11-11T21:01:28.050Z,6.27
2018-11-11T21:03:56.057Z,6.27
2018-11-11T21:06:23.851Z,6.25
2018-11-11T21:08:51.869Z,6.26
2018-11-11T21:11:20.602Z,6.26
2018-11-11T21:13:50.672Z,6.19
2018-11-11T21:16:18.397Z,6.33
2018-11-11T21:18:49.730Z,6.32
2018-11-11T21:21:17.517Z,6.24
2018-11-11T21:23:47.338Z,6.25
2018-11-11T21:26:15.274Z,6.17
2018-11-11T21:28:43.688Z,6.19
2018-11-11T21:31:12.523Z,6.05
2018-11-11T21:33:41.068Z,6.09
2018-11-11T21:36:09.208Z,6.07
2018-11-11T21:38:36.988Z,6.06
2018-11-11T21:41:05.500Z,6.01
2018-11-11T21:43:33.326Z,5.99
2018-11-11T21:46:01.148Z,5.99
2018-11-11T21:48:28.915Z,5.89
2018-11-11T21:50:57.942Z,5.83
2018-11-11T21:54:35.049Z,5.80
2018-11-11T21:57:59.669Z,5.76
2018-11-11T22:03:20.473Z,5.74
2018-11-11T22:06:16.220Z,5.60
2018-11-11T22:08:44.241Z,5.51
2018-11-11T22:11:13.852Z,5.49
2018-11-11T22:13:42.701Z,5.70
2018-11-11T22:16:10.782Z,5.48
2018-11-11T22:18:38.637Z,5.44
2018-11-11T22:21:09.146Z,5.44
2018-11-11T22:24:19.801Z,5.37
2018-11-11T22:26:47.717Z,5.45
2018-11-11T22:29:15.942Z,5.39
2018-11-11T22:31:43.632Z,5.41
2018-11-11T22:34:11.572Z,5.34
2018-11-11T22:36:39.387Z,5.30
2018-11-11T22:39:08.260Z,5.17
2018-11-11T22:41:36.870Z,5.22
2018-11-11T22:44:04.729Z,5.10
2018-11-11T22:46:32.645Z,4.93
2018-11-11T22:49:01.114Z,4.99
2018-11-11T22:51:28.857Z,5.01
2018-11-11T22:53:56.554Z,5.10
2018-11-11T22:56:24.149Z,4.91
2018-11-11T22:58:52.033Z,4.99
2018-11-11T23:01:21.233Z,5.18
2018-11-11T23:03:49.641Z,5.12
2018-11-11T23:06:17.519Z,5.20
2018-11-11T23:08:45.254Z,5.15
2018-11-11T23:11:13.109Z,4.90
2018-11-11T23:13:40.808Z,5.01
2018-11-11T23:16:08.687Z,5.05
2018-11-11T23:18:37.006Z,5.05
2018-11-11T23:21:04.677Z,5.12
2018-11-11T23:23:32.507Z,5.08
2018-11-11T23:26:00.308Z,5.10
2018-11-11T23:28:28.026Z,5.07
2018-11-11T23:30:55.821Z,5.15
2018-11-11T23:33:23.544Z,5.03
2018-11-11T23:35:51.159Z,4.94
2018-11-11T23:38:18.925Z,4.97
2018-11-11T23:40:46.411Z,5.02
2018-11-11T23:43:13.985Z,4.93
2018-11-11T23:45:41.599Z,5.00
2018-11-11T23:48:09.264Z,5.03
2018-11-11T23:50:37.078Z,5.11
2018-11-11T23:53:04.627Z,5.13
2018-11-11T23:55:32.063Z,5.17
2018-11-11T23:57:59.444Z,5.12
